ADDS METAR Data INFO
IDs: Format: Raw Decoded Include TAF

Data at: 2314 UTC 16 Jan 2018

KILN 162254Z AUTO 27009KT 10SM BKN024 M14/M18 A3047 RMK AO2 SLP368 T11391178
KILN 162154Z AUTO 26010KT 10SM OVC022 M13/M17 A3046 RMK AO2 SLP363 T11281172
KILN 162104Z AUTO 26010KT 10SM BKN019 M13/M18 A3045 RMK AO2 T11281178
KILN 162054Z AUTO 26009KT 10SM SCT019 M13/M18 A3045 RMK AO2 SLP357 T11281178 53000
KILN 161954Z AUTO 25009KT 10SM CLR M13/M18 A3044 RMK AO2 SLP354 T11281178
KILN 161854Z AUTO 25010KT 10SM CLR M13/M18 A3043 RMK AO2 SLP351 T11331178
KILN 161754Z AUTO 27008KT 10SM CLR M14/M18 A3044 RMK AO2 SLP355 T11441183 11133 21144 58010
KILN 161654Z AUTO 27009KT 10SM CLR M14/M17 A3047 RMK AO2 SLP360 T11391172
KILN 161554Z AUTO 26009KT 10SM FEW110 M14/M18 A3048 RMK AO2 SLP363 T11391178
KILN 161454Z AUTO 27008KT 7SM FEW014 BKN100 OVC120 M14/M17 A3048 RMK AO2 SLP362 T11441167 53014
KILN 161354Z AUTO 28006KT 10SM FEW070 OVC090 M14/M17 A3045 RMK AO2 SLP354 T11441172
KILN 161254Z AUTO 29011KT 10SM OVC095 M14/M17 A3045 RMK AO2 SLP353 T11441172
KILN 161154Z AUTO 27009KT 10SM OVC100 M13/M16 A3043 RMK AO2 SLP346 60000 70017 T11331161 11078 21133 51014
KILN 161054Z AUTO 27010KT 10SM OVC090 M13/M16 A3042 RMK AO2 SLP341 T11331161
KILN 160954Z AUTO 27011KT 10SM BKN070 OVC085 M13/M16 A3041 RMK AO2 SLP338 T11281161
KILN 160854Z AUTO 27009KT 10SM FEW016 OVC060 M12/M15 A3039 RMK AO2 SLP329 60000 T11221150 51018
KILN 160754Z AUTO 28010KT 10SM BKN055 OVC070 M12/M14 A3039 RMK AO2 SNE44 SLP329 P0000 T11171144
KILN 160654Z AUTO 29014KT 4SM -SN BR FEW013 OVC044 M09/M11 A3035 RMK AO2 SNE02B35 SLP315 P0000 T10941111
KILN 160554Z AUTO 28013G19KT 4SM -SN BR OVC035 M08/M09 A3033 RMK AO2 WSHFT 0446 SLP308 P0000 60007 T10781089 11033 21078 53011
KILN 160529Z AUTO 28014KT 2SM -SN BR SCT009 OVC031 M07/M08 A3033 RMK AO2 WSHFT 0446 P0000 T10721083
KILN 160509Z AUTO 28011KT 1 3/4SM -SN BR FEW004 BKN008 OVC013 M06/M07 A3033 RMK AO2 WSHFT 0446 P0000 T10611067
KILN 160500Z AUTO 28012KT 1 1/4SM -SN BR FEW005 SCT008 OVC013 M06/M06 A3033 RMK AO2 WSHFT 0446 P0000 T10561061
KILN 160454Z AUTO 28015G22KT 3/4SM -SN BR FEW005 OVC013 M06/M06 A3032 RMK AO2 SLP302 P0002 T10561061 410281111
KILN 160451Z AUTO 28014G22KT 3/4SM -SN BR FEW005 OVC013 M04/M05 A3032 RMK AO2 P0002
KILN 160418Z AUTO 24006KT 1 1/4SM -SN BR SCT007 OVC015 M04/M04 A3031 RMK AO2 P0001 T10391039
KILN 160354Z AUTO 22008KT 1 1/4SM -SN BR OVC016 M04/M04 A3031 RMK AO2 SLP297 P0002 T10391039
KILN 160254Z AUTO 23008KT 1 3/4SM -SN BR FEW007 SCT014 OVC021 M03/M04 A3030 RMK AO2 SLP296 P0001 60003 T10331039 51009
KILN 160227Z AUTO 23009KT 1 1/2SM -SN BR FEW009 OVC018 M03/M04 A3030 RMK AO2 P0000 T10331039
KILN 160214Z AUTO 23008KT 2 1/2SM -SN BR SCT009 BKN014 OVC026 M03/M04 A3029 RMK AO2 P0000 T10331039
KILN 160206Z AUTO 24009KT 2 1/2SM -SN BR OVC012 M03/M03 A3030 RMK AO2 P0000 T10331033
KILN 160154Z AUTO 23009KT 1 3/4SM -SN BR OVC009 M03/M03 A3029 RMK AO2 SNE00B04 SLP292 P0001 T10331033
KILN 160135Z AUTO 23010KT 1 3/4SM -SN BR OVC009 M03/M04 A3029 RMK AO2 SNE00B04 CIG 007V013 P0000 T10331039
KILN 160121Z AUTO 23009KT 6SM -SN BR BKN009 OVC013 M03/M04 A3028 RMK AO2 SNE00B04 CIG 007V011 P0000 T10331039
KILN 160114Z AUTO 24009KT 5SM -SN BR OVC012 M03/M04 A3029 RMK AO2 SNE00B04 P0000 T10331039
KILN 160101Z AUTO 24010KT 6SM BR BKN009 OVC014 M03/M03 A3029 RMK AO2 SNE00 P0000 T10331033
KILN 160054Z AUTO 24006KT 5SM -SN BR BKN011 OVC020 M03/M03 A3029 RMK AO2 SLP291 P0001 T10331033
KILN 160041Z AUTO 24007KT 3SM -SN BR FEW009 BKN021 OVC030 M03/M03 A3028 RMK AO2 P0001 T10331033
KILN 160031Z AUTO 24008KT 2SM -SN BR SCT014 SCT021 OVC028 M03/M04 A3028 RMK AO2 P0001 T10331039
KILN 160015Z AUTO 25009KT 1 3/4SM -SN BR OVC026 M03/M04 A3028 RMK AO2 P0001 T10331039
KILN 152354Z AUTO 24009KT 5SM -SN BR OVC027 M03/M04 A3027 RMK AO2 UPB24E38SNE24B39 SLP288 P0000 60008 T10331039 11028 21033 51019
KILN 152311Z AUTO 24012KT 4SM -SN BR OVC026 M03/M04 A3026 RMK AO2 P0000 T10331044
KILN 152254Z AUTO 24013KT 2SM -SN BR FEW014 OVC022 M03/M04 A3026 RMK AO2 SLP282 P0002 T10331039
KILN 152240Z AUTO 24012KT 1SM -SN BR FEW011 OVC016 M03/M03 A3026 RMK AO2 P0002 T10331033
KILN 152203Z AUTO 25009KT 1/2SM SN FZFG BKN010 OVC014 M03/M03 A3025 RMK AO2 P0001 T10281033
KILN 152154Z AUTO 24008KT 3/4SM -SN BR SCT009 OVC016 M03/M03 A3025 RMK AO2 SLP279 P0002 T10281033
KILN 152139Z AUTO 24009KT 1SM -SN BR SCT009 OVC017 M03/M03 A3024 RMK AO2 P0002 T10281033
KILN 152124Z AUTO 23010KT 3/4SM -SN BR FEW008 OVC015 M03/M03 A3023 RMK AO2 P0001 T10281033
KILN 152054Z AUTO 24008KT 1/2SM SN FZFG BKN018 OVC033 M03/M04 A3022 RMK AO2 SLP268 P0002 60004 T10281039 52008
KILN 152051Z AUTO 23009KT 3/4SM -SN BR BKN020 OVC033 M03/M04 A3021 RMK AO2 P0002
KILN 152027Z AUTO 22009KT 1SM -SN BR BKN021 OVC034 M03/M04 A3020 RMK AO2 P0001 T10281039
KILN 152010Z AUTO 22009KT 3/4SM -SN BR VV019 M03/M04 A3020 RMK AO2 P0001 T10281044
KILN 151954Z AUTO 21009KT 1SM -SN BR BKN023 OVC032 M03/M04 A3020 RMK AO2 SLP261 P0001 T10281044
KILN 151919Z AUTO 19008KT 1 1/4SM -SN BR BKN028 OVC036 M03/M04 A3019 RMK AO2 P0001 T10331044
KILN 151909Z AUTO 19009KT 1 3/4SM -SN BR BKN030 OVC038 M03/M05 A3019 RMK AO2 P0001 T10331050
KILN 151854Z AUTO 18010KT 1 1/2SM -SN BR BKN024 BKN030 OVC036 M03/M05 A3019 RMK AO2 SLP261 P0001 T10331050
KILN 151843Z AUTO 18009KT 1 1/4SM -SN BR BKN020 BKN030 OVC036 M04/M05 A3020 RMK AO2 P0001 T10391050
KILN 151824Z AUTO 18007KT 3/4SM -SN BR BKN021 BKN036 OVC046 M04/M05 A3021 RMK AO2 P0001 T10391050
KILN 151815Z AUTO 18008KT 2 1/2SM -SN BR BKN025 BKN038 OVC046 M04/M06 A3022 RMK AO2 P0001 T10391056
KILN 151807Z AUTO 19007KT 2SM -SN BR SCT025 BKN036 OVC046 M04/M06 A3022 RMK AO2 P0001 T10391056
KILN 151754Z AUTO 19008KT 1 1/4SM -SN BR BKN022 OVC032 M04/M06 A3023 RMK AO2 SLP273 P0001 60002 T10441056 11044 21089 58019
KILN 151654Z AUTO 18008KT 1SM -SN BR BKN021 BKN026 OVC034 M05/M06 A3027 RMK AO2 SNB23 SLP289 P0000 T10501061
KILN 151650Z AUTO 19008KT 1SM -SN BR BKN023 OVC034 M05/M07 A3027 RMK AO2 SNB23 P0000
KILN 151642Z AUTO 18009KT 2SM -SN BR BKN027 BKN034 OVC043 M05/M07 A3027 RMK AO2 SNB23 P0000 T10501067
KILN 151635Z AUTO 18010KT 1 3/4SM -SN BR BKN032 OVC043 M05/M07 A3027 RMK AO2 SNB23 P0000 T10501072
KILN 151554Z AUTO 17008KT 9SM BKN044 OVC055 M06/M08 A3028 RMK AO2 SNB13E49 SLP296 P0000 T10561078
KILN 151540Z AUTO 17010KT 4SM -SN BR FEW028 OVC041 M06/M08 A3029 RMK AO2 SNB13 P0000 T10611078
KILN 151531Z AUTO 17007KT 2 1/2SM -SN BR FEW029 BKN037 OVC044 M06/M08 A3029 RMK AO2 SNB13 P0000 T10611078
KILN 151454Z AUTO 18009KT 9SM BKN032 OVC048 M07/M08 A3029 RMK AO2 SNE11B31E38 SLP300 P0000 60001 T10671083 56007
KILN 151400Z AUTO 16009KT 3SM -SN BR FEW028 BKN034 OVC050 M08/M09 A3029 RMK AO2 P0000 T10781089
KILN 151354Z AUTO 17008KT 1 3/4SM -SN BR BKN034 OVC050 M08/M09 A3030 RMK AO2 SLP302 P0000 T10781089
KILN 151352Z AUTO 17009KT 1 3/4SM -SN BR BKN034 M08/M09 A3029 RMK AO2 P0000
KILN 151254Z AUTO 16006KT 6SM -SN BR FEW048 BKN075 OVC090 M08/M09 A3031 RMK AO2 SLP306 P0001 T10831094
KILN 151154Z AUTO 16007KT 3SM -SN BR OVC034 M09/M10 A3032 RMK AO2 SLP309 P0001 60006 70006 T10891100 11089 21106 56003
KILN 151152Z AUTO 16007KT 2 1/2SM -SN BR OVC032 M09/M10 A3031 RMK AO2 P0001
KILN 151145Z AUTO 16007KT 3SM -SN BR OVC030 M09/M10 A3031 RMK AO2 P0001 T10891100